createdAt,value
2019-02-26T00:01:01.193Z,4.51
2019-02-26T00:03:33.076Z,4.57
2019-02-26T00:06:01.558Z,4.58
2019-02-26T00:08:29.659Z,4.65
2019-02-26T00:11:00.781Z,4.74
2019-02-26T00:13:27.668Z,4.80
2019-02-26T00:15:55.950Z,4.88
2019-02-26T00:18:23.570Z,4.92
2019-02-26T00:20:50.725Z,4.91
2019-02-26T00:23:19.813Z,4.90
2019-02-26T00:25:46.826Z,4.90
2019-02-26T00:28:15.867Z,4.89
2019-02-26T00:30:42.900Z,4.91
2019-02-26T00:33:10.000Z,4.91
2019-02-26T00:35:37.116Z,4.93
2019-02-26T00:38:06.128Z,4.94
2019-02-26T00:40:34.937Z,4.95
2019-02-26T00:43:04.331Z,4.97
2019-02-26T00:45:32.317Z,4.99
2019-02-26T00:48:00.202Z,5.02
2019-02-26T00:50:28.122Z,5.03
2019-02-26T00:52:57.077Z,5.05
2019-02-26T00:55:27.526Z,5.06
2019-02-26T00:57:56.786Z,5.05
2019-02-26T01:00:24.625Z,5.03
2019-02-26T01:02:52.215Z,5.03
2019-02-26T01:05:19.298Z,5.04
2019-02-26T01:07:48.893Z,5.03
2019-02-26T01:10:16.410Z,5.02
2019-02-26T01:12:44.360Z,5.00
2019-02-26T01:15:13.917Z,4.99
2019-02-26T01:17:42.226Z,4.96
2019-02-26T01:20:11.569Z,4.98
2019-02-26T01:22:40.249Z,4.99
2019-02-26T01:25:10.109Z,4.98
2019-02-26T01:27:37.043Z,4.98
2019-02-26T01:30:05.290Z,4.99
2019-02-26T01:32:32.383Z,4.97
2019-02-26T01:35:00.947Z,4.99
2019-02-26T01:37:29.964Z,5.01
2019-02-26T01:39:57.464Z,5.03
2019-02-26T01:42:25.362Z,5.05
2019-02-26T01:44:53.535Z,5.05
2019-02-26T01:47:21.840Z,5.05
2019-02-26T01:49:51.120Z,5.07
2019-02-26T01:52:18.346Z,5.06
2019-02-26T01:54:45.434Z,5.05
2019-02-26T01:57:12.522Z,5.04
2019-02-26T01:59:39.610Z,5.03
2019-02-26T02:02:06.696Z,5.02
2019-02-26T02:04:34.298Z,4.99
2019-02-26T02:07:04.225Z,5.04
2019-02-26T02:09:32.080Z,5.03
2019-02-26T02:12:00.079Z,5.03
2019-02-26T02:14:28.178Z,5.02
2019-02-26T02:16:55.283Z,4.98
2019-02-26T02:19:24.761Z,4.92
2019-02-26T02:21:52.061Z,4.88
2019-02-26T02:24:22.265Z,4.83
2019-02-26T02:26:50.429Z,4.79
2019-02-26T02:29:19.202Z,4.75
2019-02-26T02:31:47.376Z,4.74
2019-02-26T02:34:14.456Z,4.69
2019-02-26T02:36:41.573Z,4.67
2019-02-26T02:39:13.018Z,4.67
2019-02-26T02:41:42.077Z,4.64
2019-02-26T02:44:12.333Z,4.61
2019-02-26T02:46:39.261Z,4.57
2019-02-26T02:49:07.510Z,4.53
2019-02-26T02:51:37.156Z,4.45
2019-02-26T02:54:04.710Z,4.40
2019-02-26T02:56:33.376Z,4.39
2019-02-26T02:59:00.808Z,4.39
2019-02-26T03:01:28.657Z,4.36
2019-02-26T03:03:59.030Z,4.34
2019-02-26T03:06:28.216Z,4.29
2019-02-26T03:08:54.984Z,4.25
2019-02-26T03:11:22.084Z,4.24
2019-02-26T03:13:51.226Z,4.25
2019-02-26T03:16:19.448Z,4.22
2019-02-26T03:18:47.169Z,4.21
2019-02-26T03:21:16.193Z,4.20
2019-02-26T03:23:45.497Z,4.21
2019-02-26T03:26:14.679Z,4.22
2019-02-26T03:28:42.128Z,4.23
2019-02-26T03:31:10.247Z,4.21
2019-02-26T03:33:37.326Z,4.17
2019-02-26T03:36:08.557Z,4.16
2019-02-26T03:38:35.250Z,4.16
2019-02-26T03:41:03.651Z,4.18
2019-02-26T03:43:31.389Z,4.20
2019-02-26T03:45:59.862Z,4.19
2019-02-26T03:48:26.948Z,4.23
2019-02-26T03:50:54.042Z,4.24
2019-02-26T03:53:25.559Z,4.24
2019-02-26T03:55:50.325Z,4.22
2019-02-26T03:58:17.667Z,4.21
2019-02-26T04:00:46.850Z,4.20
2019-02-26T04:03:15.133Z,4.20
2019-02-26T04:05:43.365Z,4.21
2019-02-26T04:08:10.657Z,4.24
2019-02-26T04:10:37.742Z,4.24
2019-02-26T04:13:04.823Z,4.25
2019-02-26T04:15:33.515Z,4.26
2019-02-26T04:18:00.921Z,4.27
2019-02-26T04:20:28.031Z,4.26
2019-02-26T04:22:56.815Z,4.27
2019-02-26T04:25:49.483Z,4.26
2019-02-26T04:28:27.238Z,4.26
2019-02-26T04:31:29.321Z,4.25
2019-02-26T04:34:12.815Z,4.24
2019-02-26T04:37:12.886Z,4.20
2019-02-26T04:40:11.033Z,4.17
2019-02-26T04:43:25.432Z,4.13
2019-02-26T04:46:21.843Z,4.12
2019-02-26T04:48:49.283Z,4.09
2019-02-26T04:51:16.334Z,4.09
2019-02-26T04:53:43.393Z,4.07
2019-02-26T04:56:12.839Z,4.06
2019-02-26T04:58:40.363Z,4.08
2019-02-26T05:01:10.109Z,4.13
2019-02-26T05:03:37.459Z,4.14
2019-02-26T05:06:05.909Z,4.13
2019-02-26T05:08:37.113Z,4.13
2019-02-26T05:11:02.489Z,4.16
2019-02-26T05:13:34.530Z,4.18
2019-02-26T05:16:01.263Z,4.18
2019-02-26T05:18:29.065Z,4.22
2019-02-26T05:20:59.158Z,4.25
2019-02-26T05:23:28.281Z,4.27
2019-02-26T05:25:59.754Z,4.30
2019-02-26T05:28:24.942Z,4.32
2019-02-26T05:30:52.007Z,4.36
2019-02-26T05:33:21.631Z,4.40
2019-02-26T05:35:49.005Z,4.44
2019-02-26T05:38:17.036Z,4.46
2019-02-26T05:40:45.188Z,4.47
2019-02-26T05:43:13.076Z,4.49
2019-02-26T05:45:40.131Z,4.51
2019-02-26T05:48:07.373Z,4.51
2019-02-26T05:50:35.535Z,4.49
2019-02-26T05:53:05.510Z,4.50
2019-02-26T05:55:32.371Z,4.53
2019-02-26T05:57:59.448Z,4.56
2019-02-26T06:00:30.612Z,4.60
2019-02-26T06:02:55.472Z,4.62
2019-02-26T06:05:23.197Z,4.67
2019-02-26T06:07:52.204Z,4.69
2019-02-26T06:10:21.489Z,4.70
2019-02-26T06:12:48.460Z,4.69
2019-02-26T06:15:15.518Z,4.70
2019-02-26T06:17:45.217Z,4.74
2019-02-26T06:20:14.635Z,4.74
2019-02-26T06:22:41.694Z,4.74
2019-02-26T06:25:13.893Z,4.75
2019-02-26T06:27:37.750Z,4.74
2019-02-26T06:30:07.319Z,4.73
2019-02-26T06:32:36.742Z,4.74
2019-02-26T06:35:06.701Z,4.75
2019-02-26T06:37:35.544Z,4.75
2019-02-26T06:40:05.207Z,4.74
2019-02-26T06:42:33.763Z,4.75
2019-02-26T06:45:03.995Z,4.77
2019-02-26T06:47:32.896Z,4.75
2019-02-26T06:49:59.947Z,4.75
2019-02-26T06:52:27.022Z,4.74
2019-02-26T06:54:57.260Z,4.75
2019-02-26T06:57:23.072Z,4.75
2019-02-26T06:59:51.015Z,4.80
2019-02-26T07:02:19.113Z,4.82
2019-02-26T07:04:46.230Z,4.83
2019-02-26T07:07:14.424Z,4.85
2019-02-26T07:09:43.759Z,4.88
2019-02-26T07:12:10.670Z,4.89
2019-02-26T07:14:37.727Z,4.91
2019-02-26T07:17:06.103Z,4.92
2019-02-26T07:19:35.640Z,4.92
2019-02-26T07:22:02.211Z,4.94
2019-02-26T07:24:29.392Z,4.97
2019-02-26T07:26:56.448Z,4.96
2019-02-26T07:29:23.553Z,4.98
2019-02-26T07:31:51.876Z,5.02
2019-02-26T07:34:20.607Z,5.04
2019-02-26T07:36:50.706Z,5.04
2019-02-26T07:39:20.916Z,5.06
2019-02-26T07:41:49.300Z,5.11
2019-02-26T07:44:18.870Z,5.10
2019-02-26T07:46:45.771Z,5.14
2019-02-26T07:49:12.852Z,5.16
2019-02-26T07:51:40.449Z,5.18
2019-02-26T07:54:08.932Z,5.19
2019-02-26T07:56:36.019Z,5.20
2019-02-26T07:59:06.792Z,5.23
2019-02-26T08:01:32.260Z,5.29
2019-02-26T08:03:59.333Z,5.34
2019-02-26T08:06:28.799Z,5.39
2019-02-26T08:08:55.358Z,5.43
2019-02-26T08:11:22.428Z,5.47
2019-02-26T08:13:52.486Z,5.56
2019-02-26T08:16:21.323Z,5.59
2019-02-26T08:18:49.455Z,5.63
2019-02-26T08:21:21.732Z,5.67
2019-02-26T08:23:50.546Z,5.73
2019-02-26T08:26:19.846Z,5.76
2019-02-26T08:28:48.174Z,5.81
2019-02-26T08:31:17.810Z,5.86
2019-02-26T08:33:48.640Z,5.92
2019-02-26T08:36:14.098Z,5.99
2019-02-26T08:38:41.375Z,6.06
2019-02-26T08:41:08.457Z,6.14
2019-02-26T08:43:35.513Z,6.21
2019-02-26T08:46:02.586Z,6.28
2019-02-26T08:48:29.648Z,6.36
2019-02-26T08:51:00.775Z,6.48
2019-02-26T08:53:26.643Z,6.56
2019-02-26T08:55:56.273Z,6.69
2019-02-26T08:58:25.714Z,6.80
2019-02-26T09:00:52.564Z,6.92
2019-02-26T09:03:20.418Z,7.01
2019-02-26T09:05:49.290Z,7.09
2019-02-26T09:08:18.205Z,7.19
2019-02-26T09:10:46.941Z,7.28
2019-02-26T09:13:16.327Z,7.37
2019-02-26T09:15:43.370Z,7.48
2019-02-26T09:18:10.434Z,7.60
2019-02-26T09:20:37.503Z,7.67
2019-02-26T09:23:04.575Z,7.76
2019-02-26T09:25:33.984Z,7.86
2019-02-26T09:28:01.255Z,7.96
2019-02-26T09:30:31.002Z,8.07
2019-02-26T09:32:59.125Z,8.15
2019-02-26T09:35:28.866Z,8.22
2019-02-26T09:37:57.884Z,8.38
2019-02-26T09:40:29.013Z,8.37
2019-02-26T09:42:58.124Z,8.44
2019-02-26T09:45:28.609Z,8.51
2019-02-26T09:47:55.870Z,8.60
2019-02-26T09:50:23.125Z,8.71
2019-02-26T09:52:50.826Z,8.85
2019-02-26T09:55:19.489Z,8.89
2019-02-26T09:57:46.635Z,9.00
2019-02-26T10:00:16.836Z,9.13
2019-02-26T10:02:49.490Z,9.22
2019-02-26T10:05:18.285Z,9.29
2019-02-26T10:07:48.485Z,9.45
2019-02-26T10:10:16.293Z,9.53
2019-02-26T10:12:43.355Z,9.60
2019-02-26T10:15:11.324Z,9.55
2019-02-26T10:17:40.943Z,9.53
2019-02-26T10:20:36.800Z,9.57
2019-02-26T10:23:06.180Z,9.66
2019-02-26T10:25:34.957Z,9.80
2019-02-26T10:28:08.676Z,9.89
2019-02-26T10:30:36.972Z,9.90
2019-02-26T10:33:06.425Z,9.90
2019-02-26T10:35:36.066Z,10.00
2019-02-26T10:38:05.165Z,10.04
2019-02-26T10:40:35.555Z,10.12
2019-02-26T10:43:01.545Z,10.16
2019-02-26T10:45:28.851Z,10.26
2019-02-26T10:47:56.913Z,10.39
2019-02-26T10:50:29.886Z,10.42
2019-02-26T10:52:57.847Z,10.47
2019-02-26T10:55:53.651Z,10.54
2019-02-26T10:58:20.851Z,10.52
2019-02-26T11:00:53.194Z,10.49
2019-02-26T11:03:20.460Z,10.47
2019-02-26T11:05:48.783Z,10.42
2019-02-26T11:08:16.495Z,10.46
2019-02-26T11:10:44.915Z,10.41
2019-02-26T11:13:17.721Z,10.43
2019-02-26T11:15:45.621Z,10.43
2019-02-26T11:18:15.134Z,10.48
2019-02-26T11:20:41.688Z,10.53
2019-02-26T11:23:11.144Z,10.59
2019-02-26T11:25:37.805Z,10.64
2019-02-26T11:28:07.399Z,10.73
2019-02-26T11:30:33.835Z,10.79
2019-02-26T11:33:04.753Z,10.74
2019-02-26T11:35:29.955Z,10.77
2019-02-26T11:37:58.127Z,10.77
2019-02-26T11:40:27.645Z,10.73
2019-02-26T11:42:54.285Z,10.72
2019-02-26T11:45:21.547Z,10.68
2019-02-26T11:47:48.608Z,10.67
2019-02-26T11:50:16.290Z,10.46
2019-02-26T11:52:43.405Z,10.43
2019-02-26T11:55:11.339Z,10.47
2019-02-26T11:57:39.868Z,10.35
2019-02-26T12:00:13.955Z,10.33
2019-02-26T12:02:43.570Z,10.37
2019-02-26T12:05:10.814Z,10.43
2019-02-26T12:07:37.940Z,10.53
2019-02-26T12:10:09.525Z,10.38
2019-02-26T12:12:36.832Z,10.27
2019-02-26T12:15:06.790Z,10.27
2019-02-26T12:17:35.713Z,10.25
2019-02-26T12:20:02.901Z,10.20
2019-02-26T12:22:29.986Z,10.20
2019-02-26T12:24:58.857Z,10.18
2019-02-26T12:27:26.004Z,10.20
2019-02-26T12:29:54.576Z,10.21
2019-02-26T12:32:22.351Z,10.24
2019-02-26T12:34:51.454Z,10.27
2019-02-26T12:37:18.601Z,10.14
2019-02-26T12:39:47.342Z,10.07
2019-02-26T12:42:15.959Z,10.04
2019-02-26T12:44:45.498Z,9.95
2019-02-26T12:47:14.696Z,9.93
2019-02-26T12:49:44.272Z,9.92
2019-02-26T12:52:10.459Z,9.94
2019-02-26T12:54:39.964Z,9.95
2019-02-26T12:57:06.483Z,9.99
2019-02-26T12:59:33.557Z,10.01
2019-02-26T13:02:00.632Z,10.00
2019-02-26T13:04:27.693Z,10.01
2019-02-26T13:06:54.751Z,9.97
2019-02-26T13:09:26.592Z,9.94
2019-02-26T13:12:01.123Z,9.91
2019-02-26T13:14:20.233Z,9.89
2019-02-26T13:16:48.830Z,9.88
2019-02-26T13:19:21.473Z,9.89
2019-02-26T13:21:45.249Z,9.89
2019-02-26T13:24:17.071Z,9.90
2019-02-26T13:26:43.536Z,9.91
2019-02-26T13:29:10.227Z,9.90
2019-02-26T13:31:44.831Z,9.92
2019-02-26T13:34:06.321Z,9.96
2019-02-26T13:39:04.116Z,10.04
2019-02-26T13:41:38.407Z,10.07
2019-02-26T13:44:00.208Z,10.06
2019-02-26T13:46:27.259Z,10.07
2019-02-26T13:48:54.322Z,10.10
2019-02-26T13:51:21.484Z,10.14
2019-02-26T13:53:48.540Z,10.14
2019-02-26T13:56:15.617Z,10.10
2019-02-26T13:58:42.775Z,10.02
2019-02-26T14:01:09.880Z,9.95
2019-02-26T14:03:36.952Z,9.93
2019-02-26T14:06:04.005Z,9.94
2019-02-26T14:08:31.072Z,9.95
2019-02-26T14:10:58.143Z,9.97
2019-02-26T14:13:25.209Z,9.95
2019-02-26T14:15:52.278Z,9.95
2019-02-26T14:18:19.339Z,9.92
2019-02-26T14:20:46.409Z,9.87
2019-02-26T14:23:13.471Z,9.84
2019-02-26T14:25:40.840Z,9.83
2019-02-26T14:28:07.906Z,9.83
2019-02-26T14:30:34.971Z,9.84
2019-02-26T14:33:02.046Z,9.87
2019-02-26T14:35:29.138Z,9.85
2019-02-26T14:37:56.205Z,9.83
2019-02-26T14:40:23.269Z,9.81
2019-02-26T14:42:52.939Z,9.79
2019-02-26T14:45:20.016Z,9.81
2019-02-26T14:47:47.112Z,9.79
2019-02-26T14:50:15.011Z,9.80
2019-02-26T14:52:42.262Z,9.82
2019-02-26T14:55:09.978Z,9.81
2019-02-26T14:57:41.813Z,9.79
2019-02-26T15:00:27.154Z,9.73
2019-02-26T15:02:54.376Z,9.72
2019-02-26T15:05:21.486Z,9.67
2019-02-26T15:07:48.560Z,9.63
2019-02-26T15:10:15.773Z,9.58
2019-02-26T15:12:42.901Z,9.53
2019-02-26T15:15:11.103Z,9.49
2019-02-26T15:17:38.223Z,9.45
2019-02-26T15:20:07.278Z,9.39
2019-02-26T15:22:34.343Z,9.36
2019-02-26T15:25:01.412Z,9.36
2019-02-26T15:27:35.997Z,9.38
2019-02-26T15:29:59.618Z,9.40
2019-02-26T15:32:26.870Z,9.41
2019-02-26T15:34:53.969Z,9.38
2019-02-26T15:37:21.092Z,9.35
2019-02-26T15:39:48.159Z,9.29
2019-02-26T15:42:15.218Z,9.24
2019-02-26T15:44:42.374Z,9.19
2019-02-26T15:47:09.448Z,9.16
2019-02-26T15:49:37.777Z,9.14
2019-02-26T15:52:05.347Z,9.12
2019-02-26T15:54:32.741Z,9.07
2019-02-26T15:57:00.445Z,8.99
2019-02-26T15:59:28.107Z,8.94
2019-02-26T16:01:55.550Z,8.86
2019-02-26T16:04:23.161Z,8.76
2019-02-26T16:06:50.230Z,8.66
2019-02-26T16:09:17.294Z,8.60
2019-02-26T16:11:44.367Z,8.57
2019-02-26T16:14:11.448Z,8.53
2019-02-26T16:16:38.534Z,8.49
2019-02-26T16:19:05.602Z,8.47
2019-02-26T16:21:32.663Z,8.43
2019-02-26T16:23:59.770Z,8.40
2019-02-26T16:26:26.842Z,8.37
2019-02-26T16:28:56.525Z,8.32
2019-02-26T16:31:23.783Z,8.29
2019-02-26T16:33:50.874Z,8.23
2019-02-26T16:36:18.058Z,8.15
2019-02-26T16:38:45.155Z,8.04
2019-02-26T16:41:12.229Z,7.97
2019-02-26T16:43:39.310Z,7.87
2019-02-26T16:46:08.528Z,7.81
2019-02-26T16:48:35.669Z,7.72
2019-02-26T16:51:04.064Z,7.67
2019-02-26T16:53:33.497Z,7.67
2019-02-26T16:56:00.114Z,7.58
2019-02-26T16:58:28.540Z,7.45
2019-02-26T17:00:58.609Z,7.27
2019-02-26T17:03:26.075Z,7.19
2019-02-26T17:05:53.148Z,7.20
2019-02-26T17:08:20.219Z,7.20
2019-02-26T17:10:47.419Z,7.18
2019-02-26T17:13:14.486Z,7.10
2019-02-26T17:15:41.758Z,6.99
2019-02-26T17:18:09.827Z,6.91
2019-02-26T17:20:37.499Z,6.80
2019-02-26T17:23:04.595Z,6.69
2019-02-26T17:25:31.669Z,6.57
2019-02-26T17:27:58.723Z,6.50
2019-02-26T17:30:27.808Z,6.45
2019-02-26T17:32:54.922Z,6.43
2019-02-26T17:35:21.990Z,6.44
2019-02-26T17:37:49.074Z,6.51
2019-02-26T17:40:16.708Z,6.57
2019-02-26T17:42:43.799Z,6.64
2019-02-26T17:45:13.112Z,6.71
2019-02-26T17:47:41.979Z,6.74
2019-02-26T17:50:12.597Z,6.74
2019-02-26T17:52:39.729Z,6.73
2019-02-26T17:55:09.171Z,6.79
2019-02-26T17:57:36.076Z,6.86
2019-02-26T18:00:04.672Z,6.84
2019-02-26T18:02:32.992Z,6.82
2019-02-26T18:05:00.764Z,6.74
2019-02-26T18:07:29.088Z,6.66
2019-02-26T18:09:56.436Z,6.59
2019-02-26T18:12:23.532Z,6.58
2019-02-26T18:14:50.599Z,6.64
2019-02-26T18:17:17.670Z,6.73
2019-02-26T18:19:49.461Z,6.79
2019-02-26T18:22:21.602Z,6.85
2019-02-26T18:24:48.261Z,6.88
2019-02-26T18:27:15.656Z,6.92
2019-02-26T18:29:42.743Z,6.94
2019-02-26T18:32:11.244Z,6.97
2019-02-26T18:34:38.828Z,6.99
2019-02-26T18:37:05.940Z,7.00
2019-02-26T18:39:33.023Z,7.02
2019-02-26T18:42:00.103Z,7.05
2019-02-26T18:44:27.287Z,7.09
2019-02-26T18:46:54.359Z,7.11
2019-02-26T18:49:22.403Z,7.11
2019-02-26T18:51:49.851Z,7.06
2019-02-26T18:54:17.725Z,6.99
2019-02-26T18:56:46.065Z,6.97
2019-02-26T18:59:13.296Z,7.01
2019-02-26T19:01:40.367Z,7.06
2019-02-26T19:04:07.439Z,7.07
2019-02-26T19:06:34.527Z,7.09
2019-02-26T19:09:01.642Z,7.11
2019-02-26T19:11:28.796Z,7.12
2019-02-26T19:13:55.884Z,7.12
2019-02-26T19:16:22.965Z,7.15
2019-02-26T19:18:50.029Z,7.16
2019-02-26T19:21:17.112Z,7.15
2019-02-26T19:23:45.338Z,7.07
2019-02-26T19:26:13.852Z,7.01
2019-02-26T19:28:41.418Z,6.98
2019-02-26T19:31:11.164Z,6.98
2019-02-26T19:33:40.013Z,6.98
2019-02-26T19:36:07.223Z,6.99
2019-02-26T19:38:37.970Z,6.99
2019-02-26T19:41:13.151Z,7.00
2019-02-26T19:43:41.734Z,7.01
2019-02-26T19:46:10.349Z,6.97
2019-02-26T19:48:40.131Z,6.85
2019-02-26T19:51:09.018Z,6.95
2019-02-26T19:53:38.529Z,6.93
2019-02-26T19:56:05.631Z,6.92
2019-02-26T19:58:40.796Z,6.91
2019-02-26T20:01:11.050Z,6.91
2019-02-26T20:03:40.147Z,6.89
2019-02-26T20:06:07.079Z,6.88
2019-02-26T20:08:34.143Z,6.89
2019-02-26T20:11:01.216Z,6.89
2019-02-26T20:13:28.333Z,6.91
2019-02-26T20:15:55.452Z,6.89
2019-02-26T20:18:25.807Z,6.85
2019-02-26T20:20:52.551Z,6.86
2019-02-26T20:23:19.623Z,6.85
2019-02-26T20:25:46.951Z,6.85
2019-02-26T20:28:14.056Z,6.85
2019-02-26T20:30:41.121Z,6.86
2019-02-26T20:33:08.224Z,6.98
2019-02-26T20:35:36.730Z,6.94
2019-02-26T20:38:03.809Z,6.92
2019-02-26T20:40:30.894Z,6.91
2019-02-26T20:43:01.428Z,6.90
2019-02-26T20:45:28.744Z,6.87
2019-02-26T20:47:57.110Z,6.85
2019-02-26T20:50:24.224Z,6.84
2019-02-26T20:52:51.293Z,6.83
2019-02-26T20:55:19.877Z,6.83
2019-02-26T20:57:47.050Z,6.83
2019-02-26T21:00:15.681Z,6.84
2019-02-26T21:02:42.748Z,6.83
2019-02-26T21:05:10.093Z,6.83
2019-02-26T21:07:37.176Z,6.84
2019-02-26T21:10:04.618Z,6.84
2019-02-26T21:12:31.682Z,6.85
2019-02-26T21:14:58.756Z,6.85
2019-02-26T21:17:26.347Z,6.89
2019-02-26T21:19:53.489Z,6.91
2019-02-26T21:22:22.109Z,6.94
2019-02-26T21:24:49.536Z,6.96
2019-02-26T21:27:16.612Z,6.99
2019-02-26T21:29:43.680Z,7.00
2019-02-26T21:32:10.740Z,7.01
2019-02-26T21:34:37.806Z,7.00
2019-02-26T21:37:04.883Z,7.03
2019-02-26T21:39:31.951Z,7.06
2019-02-26T21:41:59.018Z,7.05
2019-02-26T21:44:26.099Z,7.09
2019-02-26T21:46:55.827Z,7.11
2019-02-26T21:49:22.140Z,7.14
2019-02-26T21:51:49.208Z,7.15
2019-02-26T21:54:16.287Z,7.16
2019-02-26T21:56:43.342Z,7.19
2019-02-26T21:59:10.416Z,7.21
2019-02-26T22:01:37.479Z,7.22
2019-02-26T22:04:04.551Z,7.25
2019-02-26T22:06:31.621Z,7.26
2019-02-26T22:08:58.683Z,7.29
2019-02-26T22:11:25.761Z,7.30
2019-02-26T22:13:52.820Z,7.30
2019-02-26T22:16:19.888Z,7.31
2019-02-26T22:18:46.964Z,7.32
2019-02-26T22:21:14.027Z,7.31
2019-02-26T22:23:41.102Z,7.30
2019-02-26T22:26:08.200Z,7.29
2019-02-26T22:28:35.269Z,7.29
2019-02-26T22:31:02.334Z,7.28
2019-02-26T22:33:30.504Z,7.24
2019-02-26T22:35:59.852Z,7.21
2019-02-26T22:38:26.547Z,7.21
2019-02-26T22:40:53.612Z,7.19
2019-02-26T22:43:20.695Z,7.18
2019-02-26T22:45:47.816Z,7.17
2019-02-26T22:48:14.872Z,7.16
2019-02-26T22:50:41.930Z,7.13
2019-02-26T22:53:08.999Z,7.11
2019-02-26T22:55:36.066Z,7.08
2019-02-26T22:58:03.398Z,7.02
2019-02-26T23:00:55.795Z,7.00
2019-02-26T23:03:22.969Z,6.98
2019-02-26T23:05:58.761Z,6.94
2019-02-26T23:08:23.916Z,6.94
2019-02-26T23:10:56.915Z,6.90
2019-02-26T23:13:25.151Z,6.87
2019-02-26T23:15:55.959Z,6.85
2019-02-26T23:18:28.439Z,6.81
2019-02-26T23:20:59.739Z,6.79
2019-02-26T23:23:28.915Z,6.77
2019-02-26T23:25:56.168Z,6.76
2019-02-26T23:28:23.479Z,6.72
2019-02-26T23:30:50.693Z,6.67
2019-02-26T23:33:23.046Z,6.62
2019-02-26T23:35:54.832Z,6.62
2019-02-26T23:38:21.447Z,6.58
2019-02-26T23:40:48.796Z,6.58
2019-02-26T23:43:17.935Z,6.58
2019-02-26T23:45:47.467Z,6.57
2019-02-26T23:48:20.178Z,6.51
2019-02-26T23:50:52.356Z,6.49
2019-02-26T23:53:23.567Z,6.49
2019-02-26T23:55:50.944Z,6.47
2019-02-26T23:58:20.561Z,6.37
